Terminal Aerodrome Forecast
Issued by NWS

Current Version | Previous Version | Graphics & Text | Print | Product List | Glossary On
Versions: 1 2 3 4 5 6 7 8 9 10 11 12 13 14 15 16 17 18 19 20 21 22 23 24 25 26 27 28 29 30 31
000
FTUS41 KPBZ 210500
TAFHLG
TAF
KHLG 210525Z 2106/2206 VRB03KT P6SM SKC
     FM210800 VRB03KT 5SM BR SCT060
      TEMPO 2109/2113 1SM BR
     FM211400 25010KT P6SM BKN060
     FM211800 24009KT P6SM VCTS BKN040CB
     FM220200 VRB04KT P6SM SCT040=

USA.gov is the U.S. government's official web portal to all federal, state and local government web resources and services.